createdAt,value
2018-01-20T00:01:26.020Z,2.63
2018-01-20T00:03:55.306Z,2.80
2018-01-20T00:06:23.651Z,2.80
2018-01-20T00:08:54.511Z,2.47
2018-01-20T00:11:42.465Z,3.53
2018-01-20T00:14:14.292Z,2.90
2018-01-20T00:16:42.681Z,2.80
2018-01-20T00:19:11.983Z,2.17
2018-01-20T00:21:41.270Z,2.93
2018-01-20T00:24:13.059Z,2.50
2018-01-20T00:26:41.431Z,2.37
2018-01-20T00:29:10.707Z,2.77
2018-01-20T00:31:40.967Z,2.43
2018-01-20T00:34:09.316Z,2.10
2018-01-20T00:36:37.694Z,2.60
2018-01-20T00:39:07.950Z,2.30
2018-01-20T00:41:37.361Z,2.10
2018-01-20T00:44:05.664Z,2.33
2018-01-20T00:46:33.984Z,2.53
2018-01-20T00:49:06.667Z,2.13
2018-01-20T00:51:38.438Z,2.40
2018-01-20T00:54:10.487Z,2.67
2018-01-20T00:56:38.874Z,2.40
2018-01-20T00:59:07.248Z,2.70
2018-01-20T01:01:35.658Z,2.70
2018-01-20T01:04:04.036Z,2.53
2018-01-20T01:06:32.393Z,2.20
2018-01-20T01:09:06.626Z,3.00
2018-01-20T01:11:40.521Z,2.83
2018-01-20T01:14:12.284Z,3.07
2018-01-20T01:16:42.507Z,3.00
2018-01-20T01:19:11.814Z,3.10
2018-01-20T01:21:41.126Z,2.63
2018-01-20T01:24:11.338Z,2.70
2018-01-20T01:26:40.636Z,2.60
2018-01-20T01:29:10.862Z,3.00
2018-01-20T01:31:40.174Z,2.50
2018-01-20T01:34:09.477Z,3.00
2018-01-20T01:36:39.686Z,2.63
2018-01-20T01:39:08.067Z,2.90
2018-01-20T01:41:38.318Z,2.60
2018-01-20T01:44:07.610Z,2.77
2018-01-20T01:46:35.967Z,2.33
2018-01-20T01:49:04.255Z,2.20
2018-01-20T01:51:32.740Z,1.90
2018-01-20T01:54:01.090Z,2.50
2018-01-20T01:56:29.495Z,2.10
2018-01-20T01:58:58.832Z,2.40
2018-01-20T02:01:28.114Z,1.87
2018-01-20T02:03:56.480Z,1.80
2018-01-20T02:06:25.764Z,1.83
2018-01-20T02:08:55.112Z,1.57
2018-01-20T02:11:28.055Z,1.73
2018-01-20T02:13:59.827Z,1.97
2018-01-20T02:16:29.123Z,1.63
2018-01-20T02:18:57.491Z,1.77
2018-01-20T02:21:26.856Z,1.70
2018-01-20T02:23:55.185Z,1.13
2018-01-20T02:26:23.569Z,1.50
2018-01-20T02:28:51.957Z,1.23
2018-01-20T02:31:20.334Z,1.07
2018-01-20T02:33:52.108Z,1.00
2018-01-20T02:36:20.464Z,1.00
2018-01-20T02:38:48.830Z,1.40
2018-01-20T02:41:19.089Z,1.00
2018-01-20T02:43:48.376Z,1.30
2018-01-20T02:46:16.770Z,1.20
2018-01-20T02:48:45.151Z,1.13
2018-01-20T02:51:14.431Z,1.47
2018-01-20T02:53:44.681Z,1.17
2018-01-20T02:56:13.974Z,1.43
2018-01-20T02:58:44.612Z,1.17
2018-01-20T03:01:13.804Z,1.10
2018-01-20T03:03:43.100Z,1.17
2018-01-20T03:06:11.511Z,1.20
2018-01-20T03:08:43.538Z,1.33
2018-01-20T03:11:13.764Z,1.70
2018-01-20T03:13:42.128Z,1.70
2018-01-20T03:16:12.348Z,1.37
2018-01-20T03:18:40.750Z,1.40
2018-01-20T03:21:10.028Z,1.60
2018-01-20T03:23:39.758Z,1.63
2018-01-20T03:26:08.015Z,2.13
2018-01-20T03:28:38.266Z,1.47
2018-01-20T03:31:07.587Z,1.73
2018-01-20T03:33:35.939Z,1.40
2018-01-20T03:36:04.362Z,2.00
2018-01-20T03:38:32.689Z,1.60
2018-01-20T03:41:02.000Z,1.70
2018-01-20T03:43:30.388Z,1.73
2018-01-20T03:45:59.696Z,1.43
2018-01-20T03:48:28.992Z,1.80
2018-01-20T03:51:03.781Z,2.10
2018-01-20T03:53:33.733Z,1.50
2018-01-20T03:56:03.044Z,1.87
2018-01-20T03:58:35.685Z,1.90
2018-01-20T04:01:10.821Z,2.00
2018-01-20T04:03:39.253Z,2.00
2018-01-20T04:06:07.604Z,1.90
2018-01-20T04:08:35.992Z,2.03
2018-01-20T04:11:04.364Z,2.43
2018-01-20T04:13:32.764Z,3.20
2018-01-20T04:16:02.976Z,10.73
2018-01-20T04:18:32.273Z,8.47
2018-01-20T04:21:02.520Z,5.57
2018-01-20T04:23:32.752Z,3.23
2018-01-20T04:26:02.952Z,2.60
2018-01-20T04:28:31.370Z,2.60
2018-01-20T04:31:00.644Z,2.90
2018-01-20T04:33:32.723Z,3.00
2018-01-20T04:36:04.467Z,2.47
2018-01-20T04:38:33.785Z,2.47
2018-01-20T04:41:03.065Z,2.67
2018-01-20T04:43:35.150Z,2.57
2018-01-20T04:46:04.423Z,2.70
2018-01-20T04:48:33.740Z,2.67
2018-01-20T04:51:02.136Z,2.50
2018-01-20T04:53:30.496Z,3.03
2018-01-20T04:56:03.500Z,2.43
2018-01-20T04:58:32.800Z,2.50
2018-01-20T05:01:02.094Z,2.70
2018-01-20T05:03:30.468Z,2.80
2018-01-20T05:05:59.752Z,2.43
2018-01-20T05:08:29.098Z,2.87
2018-01-20T05:11:00.842Z,2.60
2018-01-20T05:13:30.178Z,3.17
2018-01-20T05:15:58.515Z,2.77
2018-01-20T05:18:27.798Z,2.57
2018-01-20T05:20:56.193Z,2.90
2018-01-20T05:23:26.438Z,2.63
2018-01-20T05:25:55.099Z,2.83
2018-01-20T05:28:24.425Z,2.80
2018-01-20T05:30:52.768Z,2.37
2018-01-20T05:33:22.075Z,3.10
2018-01-20T05:35:50.481Z,2.90
2018-01-20T05:38:20.701Z,3.17
2018-01-20T05:40:53.682Z,3.07
2018-01-20T05:43:23.914Z,2.83
2018-01-20T05:45:53.214Z,2.63
2018-01-20T05:48:21.588Z,2.90
2018-01-20T05:50:49.958Z,2.93
2018-01-20T05:53:19.299Z,3.17
2018-01-20T05:55:48.561Z,2.97
2018-01-20T05:58:18.795Z,2.70
2018-01-20T06:00:47.171Z,3.30
2018-01-20T06:03:19.263Z,38.07
2018-01-20T06:05:47.619Z,4.33
2018-01-20T06:08:21.863Z,3.00
2018-01-20T06:10:55.444Z,3.13
2018-01-20T06:13:33.961Z,3.40
2018-01-20T06:16:02.337Z,3.33
2018-01-20T06:18:30.703Z,3.30
2018-01-20T06:21:00.939Z,3.33
2018-01-20T06:23:29.320Z,3.70
2018-01-20T06:25:57.702Z,2.93
2018-01-20T06:28:26.078Z,2.57
2018-01-20T06:30:54.444Z,2.90
2018-01-20T06:33:22.876Z,3.00
2018-01-20T06:35:51.219Z,2.87
2018-01-20T06:38:22.995Z,2.40
2018-01-20T06:40:52.263Z,2.50
2018-01-20T06:43:24.380Z,2.60
2018-01-20T06:45:53.661Z,2.80
2018-01-20T06:48:22.034Z,2.53
2018-01-20T06:50:52.269Z,3.23
2018-01-20T06:53:20.620Z,3.33
2018-01-20T06:55:49.021Z,3.40
2018-01-20T06:58:18.312Z,2.70
2018-01-20T07:00:46.674Z,2.90
2018-01-20T07:03:15.087Z,2.70
2018-01-20T07:05:43.443Z,3.53
2018-01-20T07:08:11.851Z,4.30
2018-01-20T07:10:40.208Z,5.87
2018-01-20T07:13:08.583Z,3.00
2018-01-20T07:15:37.288Z,4.60
2018-01-20T07:18:05.678Z,3.37
2018-01-20T07:20:34.038Z,3.43
2018-01-20T07:23:02.422Z,3.07
2018-01-20T07:25:30.807Z,4.10
2018-01-20T07:27:59.188Z,3.50
2018-01-20T07:30:27.582Z,3.90
2018-01-20T07:32:55.935Z,3.70
2018-01-20T07:35:25.233Z,4.00
2018-01-20T07:37:53.623Z,3.77
2018-01-20T07:40:22.010Z,3.47
2018-01-20T07:42:51.288Z,3.07
2018-01-20T07:45:19.688Z,3.70
2018-01-20T07:47:48.086Z,3.97
2018-01-20T07:50:16.855Z,3.10
2018-01-20T07:52:45.123Z,3.80
2018-01-20T07:55:13.500Z,3.60
2018-01-20T07:57:42.193Z,3.53
2018-01-20T08:00:10.573Z,3.87
2018-01-20T08:02:38.958Z,3.23
2018-01-20T08:05:07.667Z,3.37
2018-01-20T08:07:36.019Z,3.37
2018-01-20T08:10:04.401Z,4.23
2018-01-20T08:12:32.774Z,4.50
2018-01-20T08:15:01.208Z,5.37
2018-01-20T08:17:29.570Z,4.43
2018-01-20T08:19:57.933Z,5.93
2018-01-20T08:22:26.288Z,5.90
2018-01-20T08:24:54.664Z,4.70
2018-01-20T08:27:24.013Z,4.97
2018-01-20T08:29:52.389Z,4.27
2018-01-20T08:32:20.742Z,3.70
2018-01-20T08:34:49.175Z,3.57
2018-01-20T08:37:17.504Z,3.43
2018-01-20T08:39:45.908Z,3.60
2018-01-20T08:42:14.306Z,11.70
2018-01-20T08:44:42.694Z,3.00
2018-01-20T08:47:11.011Z,3.80
2018-01-20T08:49:39.429Z,3.17
2018-01-20T08:52:07.856Z,3.10
2018-01-20T08:54:37.084Z,4.20
2018-01-20T08:57:05.491Z,3.40
2018-01-20T08:59:33.914Z,3.80
2018-01-20T09:02:02.243Z,3.33
2018-01-20T09:04:30.646Z,3.70
2018-01-20T09:06:58.983Z,3.30
2018-01-20T09:09:27.360Z,3.10
2018-01-20T09:11:55.781Z,3.83
2018-01-20T09:14:24.121Z,3.27
2018-01-20T09:16:53.431Z,4.03
2018-01-20T09:19:21.823Z,3.73
2018-01-20T09:21:50.175Z,4.20
2018-01-20T09:24:18.563Z,4.40
2018-01-20T09:26:47.382Z,4.50
2018-01-20T09:29:15.670Z,4.30
2018-01-20T09:31:44.025Z,3.77
2018-01-20T09:34:12.671Z,3.87
2018-01-20T09:36:41.082Z,4.67
2018-01-20T09:39:09.470Z,4.60
2018-01-20T09:41:37.847Z,4.13
2018-01-20T09:44:06.216Z,3.80
2018-01-20T09:46:34.626Z,3.90
2018-01-20T09:49:02.982Z,4.40
2018-01-20T09:51:31.371Z,3.80
2018-01-20T09:53:59.773Z,3.37
2018-01-20T09:56:28.127Z,3.30
2018-01-20T09:58:56.501Z,2.90
2018-01-20T10:01:24.912Z,2.90
2018-01-20T10:03:53.275Z,3.17
2018-01-20T10:06:21.661Z,2.60
2018-01-20T10:08:50.029Z,2.10
2018-01-20T10:11:18.404Z,2.43
2018-01-20T10:13:47.706Z,1.80
2018-01-20T10:16:16.128Z,1.90
2018-01-20T10:18:44.468Z,1.40
2018-01-20T10:21:12.883Z,1.70
2018-01-20T10:23:41.239Z,1.97
2018-01-20T10:26:09.613Z,1.80
2018-01-20T10:28:38.019Z,1.70
2018-01-20T10:31:06.366Z,1.60
2018-01-20T10:33:34.735Z,1.70
2018-01-20T10:36:03.128Z,1.40
2018-01-20T10:38:31.585Z,1.20
2018-01-20T10:40:59.887Z,1.70
2018-01-20T10:43:28.265Z,1.43
2018-01-20T10:45:56.630Z,1.43
2018-01-20T10:48:25.049Z,1.30
2018-01-20T10:50:53.382Z,1.30
2018-01-20T10:53:21.772Z,1.37
2018-01-20T10:55:50.179Z,1.60
2018-01-20T10:58:18.572Z,1.43
2018-01-20T11:00:46.941Z,1.77
2018-01-20T11:03:15.343Z,1.40
2018-01-20T11:05:43.667Z,1.27
2018-01-20T11:08:12.074Z,1.90
2018-01-20T11:10:41.396Z,1.73
2018-01-20T11:13:09.754Z,1.73
2018-01-20T11:15:38.144Z,1.57
2018-01-20T11:18:06.515Z,1.40
2018-01-20T11:20:34.884Z,1.43
2018-01-20T11:23:03.267Z,1.50
2018-01-20T11:25:31.664Z,1.50
2018-01-20T11:28:00.052Z,1.20
2018-01-20T11:30:29.338Z,1.20
2018-01-20T11:32:57.729Z,1.23
2018-01-20T11:35:26.092Z,1.30
2018-01-20T11:37:54.492Z,1.30
2018-01-20T11:40:22.880Z,1.50
2018-01-20T11:42:51.220Z,1.40
2018-01-20T11:45:19.618Z,1.20
2018-01-20T11:47:49.422Z,1.50
2018-01-20T11:50:17.916Z,1.30
2018-01-20T11:52:46.298Z,1.40
2018-01-20T11:55:15.077Z,1.30
2018-01-20T11:57:43.350Z,1.00
2018-01-20T12:00:11.742Z,1.40
2018-01-20T12:02:40.135Z,1.40
2018-01-20T12:05:08.499Z,23.30
2018-01-20T12:07:36.890Z,1.60
2018-01-20T12:10:05.275Z,1.47
2018-01-20T12:12:33.646Z,1.40
2018-01-20T12:15:01.919Z,1.37
2018-01-20T12:17:30.183Z,1.60
2018-01-20T12:19:58.492Z,1.80
2018-01-20T12:22:26.761Z,1.70
2018-01-20T12:24:55.017Z,1.20
2018-01-20T12:27:23.301Z,1.40
2018-01-20T12:29:59.256Z,1.40
2018-01-20T12:32:27.554Z,1.60
2018-01-20T12:34:55.827Z,1.23
2018-01-20T12:37:24.099Z,1.40
2018-01-20T12:39:55.248Z,1.17
2018-01-20T12:42:23.507Z,1.40
2018-01-20T12:44:51.811Z,1.40
2018-01-20T12:47:20.081Z,1.37
2018-01-20T12:49:48.352Z,1.43
2018-01-20T12:52:16.658Z,1.67
2018-01-20T12:54:44.974Z,1.90
2018-01-20T12:57:13.225Z,1.70
2018-01-20T12:59:41.543Z,2.07
2018-01-20T13:02:11.984Z,1.80
2018-01-20T13:04:43.778Z,1.40
2018-01-20T13:07:12.154Z,1.30
2018-01-20T13:09:40.515Z,1.50
2018-01-20T13:12:12.297Z,1.90
2018-01-20T13:14:40.654Z,1.83
2018-01-20T13:17:09.487Z,1.67
2018-01-20T13:19:38.099Z,1.90
2018-01-20T13:22:07.333Z,1.77
2018-01-20T13:24:35.720Z,2.10
2018-01-20T13:27:04.087Z,1.90
2018-01-20T13:29:33.415Z,1.77
2018-01-20T13:32:07.287Z,1.70
2018-01-20T13:34:39.051Z,1.53
2018-01-20T13:37:07.443Z,1.90
2018-01-20T13:39:36.726Z,2.40
2018-01-20T13:42:07.004Z,2.10
2018-01-20T13:44:35.353Z,2.13
2018-01-20T13:47:03.727Z,1.90
2018-01-20T13:49:32.118Z,1.80
2018-01-20T13:52:00.794Z,2.40
2018-01-20T13:54:29.213Z,2.70
2018-01-20T13:56:57.565Z,2.47
2018-01-20T13:59:25.943Z,5.83
2018-01-20T14:01:54.331Z,8.03
2018-01-20T14:04:22.696Z,8.10
2018-01-20T14:06:51.138Z,7.03
2018-01-20T14:09:20.387Z,5.93
2018-01-20T14:11:48.753Z,7.03
2018-01-20T14:14:18.079Z,9.70
2018-01-20T14:16:46.444Z,7.00
2018-01-20T14:19:14.806Z,7.57
2018-01-20T14:21:43.224Z,9.40
2018-01-20T14:24:11.574Z,7.43
2018-01-20T14:26:44.278Z,6.83
2018-01-20T14:29:13.625Z,4.80
2018-01-20T14:31:42.838Z,4.23
2018-01-20T14:34:11.251Z,3.70
2018-01-20T14:36:43.284Z,3.70
2018-01-20T14:39:11.677Z,4.10
2018-01-20T14:41:40.060Z,3.93
2018-01-20T14:44:10.296Z,3.70
2018-01-20T14:46:38.688Z,3.67
2018-01-20T14:49:11.371Z,3.47
2018-01-20T14:51:39.731Z,4.10
2018-01-20T14:54:11.196Z,4.90
2018-01-20T14:56:43.282Z,4.80
2018-01-20T14:59:11.621Z,4.60
2018-01-20T15:01:40.020Z,5.67
2018-01-20T15:04:20.061Z,6.33
2018-01-20T15:06:48.474Z,5.40
2018-01-20T15:09:16.840Z,5.90
2018-01-20T15:11:45.196Z,5.37
2018-01-20T15:14:13.599Z,5.90
2018-01-20T15:16:45.370Z,5.97
2018-01-20T15:19:13.724Z,6.40
2018-01-20T15:21:42.160Z,4.67
2018-01-20T15:24:10.507Z,4.80
2018-01-20T15:26:43.146Z,4.93
2018-01-20T15:29:12.496Z,4.60
2018-01-20T15:31:44.862Z,4.00
2018-01-20T15:34:13.225Z,3.80
2018-01-20T15:36:41.602Z,4.73
2018-01-20T15:39:14.302Z,3.97
2018-01-20T15:41:42.661Z,3.83
2018-01-20T15:44:14.741Z,3.50
2018-01-20T15:46:43.123Z,3.20
2018-01-20T15:49:11.514Z,2.40
2018-01-20T15:51:43.321Z,2.87
2018-01-20T15:54:12.527Z,2.70
2018-01-20T15:56:40.911Z,2.40
2018-01-20T15:59:15.155Z,2.70
2018-01-20T16:01:47.211Z,3.00
2018-01-20T16:04:15.619Z,2.40
2018-01-20T16:06:43.984Z,2.50
2018-01-20T16:09:13.302Z,3.40
2018-01-20T16:11:41.666Z,2.73
2018-01-20T16:14:10.055Z,4.47
2018-01-20T16:16:42.095Z,3.23
2018-01-20T16:19:10.496Z,2.87
2018-01-20T16:21:38.881Z,2.40
2018-01-20T16:24:12.190Z,2.93
2018-01-20T16:26:40.514Z,2.37
2018-01-20T16:29:15.076Z,3.00
2018-01-20T16:31:43.761Z,4.23
2018-01-20T16:34:12.135Z,4.40
2018-01-20T16:36:40.530Z,4.37
2018-01-20T16:39:12.571Z,4.20
2018-01-20T16:41:40.962Z,4.50
2018-01-20T16:44:09.331Z,4.37
2018-01-20T16:46:38.629Z,4.50
2018-01-20T16:49:07.032Z,4.87
2018-01-20T16:51:35.437Z,4.70
2018-01-20T16:54:04.737Z,4.70
2018-01-20T16:56:33.101Z,4.10
2018-01-20T16:59:01.457Z,3.93
2018-01-20T17:01:29.863Z,4.40
2018-01-20T17:04:04.683Z,3.33
2018-01-20T17:06:33.415Z,4.10
2018-01-20T17:09:05.429Z,4.00
2018-01-20T17:11:33.836Z,3.47
2018-01-20T17:14:05.316Z,4.10
2018-01-20T17:16:37.067Z,4.37
2018-01-20T17:19:06.329Z,4.30
2018-01-20T17:21:38.102Z,4.57
2018-01-20T17:24:06.475Z,3.93
2018-01-20T17:26:34.844Z,3.10
2018-01-20T17:29:03.227Z,3.50
2018-01-20T17:31:31.595Z,3.57
2018-01-20T17:34:00.001Z,2.50
2018-01-20T17:36:28.389Z,2.20
2018-01-20T17:38:57.321Z,4.23
2018-01-20T17:41:25.736Z,2.97
2018-01-20T17:43:57.524Z,3.10
2018-01-20T17:46:27.883Z,3.67
2018-01-20T17:48:56.437Z,3.30
2018-01-20T17:51:24.795Z,6.60
2018-01-20T17:53:53.184Z,2.97
2018-01-20T17:56:28.973Z,2.53
2018-01-20T17:58:57.291Z,2.47
2018-01-20T18:01:25.706Z,3.00
2018-01-20T18:03:59.034Z,3.10
2018-01-20T18:06:31.968Z,3.10
2018-01-20T18:09:00.398Z,2.60
2018-01-20T18:11:28.754Z,2.97
2018-01-20T18:13:59.280Z,2.73
2018-01-20T18:16:27.675Z,2.97
2018-01-20T18:18:58.211Z,2.50
2018-01-20T18:21:29.028Z,2.53
2018-01-20T18:23:57.397Z,2.90
2018-01-20T18:26:25.770Z,2.37
2018-01-20T18:28:54.163Z,3.20
2018-01-20T18:31:25.592Z,2.63
2018-01-20T18:33:54.927Z,2.50
2018-01-20T18:36:23.280Z,2.40
2018-01-20T18:38:55.702Z,2.73
2018-01-20T18:41:24.999Z,2.90
2018-01-20T18:43:53.448Z,4.00
2018-01-20T18:46:21.758Z,3.83
2018-01-20T18:48:52.260Z,4.27
2018-01-20T18:51:20.613Z,3.40
2018-01-20T18:53:49.949Z,5.40
2018-01-20T18:56:18.345Z,5.70
2018-01-20T18:58:48.879Z,6.13
2018-01-20T19:01:19.079Z,6.77
2018-01-20T19:03:48.422Z,5.53
2018-01-20T19:06:17.709Z,5.60
2018-01-20T19:08:46.058Z,5.60
2018-01-20T19:11:16.293Z,4.77
2018-01-20T19:13:46.373Z,4.87
2018-01-20T19:16:14.642Z,6.00
2018-01-20T19:18:46.437Z,8.27
2018-01-20T19:21:14.712Z,8.90
2018-01-20T19:23:44.021Z,9.80
2018-01-20T19:26:17.015Z,9.23
2018-01-20T19:28:45.368Z,14.10
2018-01-20T19:31:13.662Z,15.90
2018-01-20T19:33:42.189Z,10.40
2018-01-20T19:36:12.362Z,10.47
2018-01-20T19:38:40.732Z,9.10
2018-01-20T19:41:09.109Z,8.67
2018-01-20T19:43:42.097Z,7.53
2018-01-20T19:46:12.374Z,6.57
2018-01-20T19:48:40.712Z,7.13
2018-01-20T19:51:09.074Z,7.03
2018-01-20T19:53:41.199Z,7.20
2018-01-20T19:56:09.554Z,7.20
2018-01-20T19:58:37.915Z,7.30
2018-01-20T20:01:09.783Z,6.53
2018-01-20T20:03:38.058Z,6.13
2018-01-20T20:06:06.434Z,6.77
2018-01-20T20:08:35.770Z,6.67
2018-01-20T20:11:04.131Z,6.30
2018-01-20T20:13:32.545Z,5.93
2018-01-20T20:16:03.029Z,6.53
2018-01-20T20:18:34.508Z,6.40
2018-01-20T20:21:02.864Z,8.00
2018-01-20T20:23:32.163Z,7.13
2018-01-20T20:26:02.438Z,8.20
2018-01-20T20:28:32.610Z,9.40
2018-01-20T20:31:01.000Z,8.83
2018-01-20T20:33:34.629Z,7.20
2018-01-20T20:36:02.985Z,7.97
2018-01-20T20:38:35.678Z,8.57
2018-01-20T20:41:04.951Z,7.00
2018-01-20T20:43:33.340Z,7.70
2018-01-20T20:46:01.763Z,7.87
2018-01-20T20:48:30.113Z,7.77
2018-01-20T20:50:58.482Z,7.97
2018-01-20T20:53:26.876Z,8.40
2018-01-20T20:55:56.179Z,8.20
2018-01-20T20:58:24.548Z,8.77
2018-01-20T21:00:52.933Z,8.20
2018-01-20T21:03:25.619Z,11.67
2018-01-20T21:05:53.996Z,9.20
2018-01-20T21:08:27.942Z,8.87
2018-01-20T21:10:58.136Z,6.67
2018-01-20T21:13:26.510Z,8.57
2018-01-20T21:15:55.163Z,8.60
2018-01-20T21:18:23.560Z,7.70
2018-01-20T21:20:51.956Z,8.00
2018-01-20T21:23:24.946Z,8.87
2018-01-20T21:25:54.253Z,9.40
2018-01-20T21:28:27.316Z,8.97
2018-01-20T21:30:55.626Z,8.43
2018-01-20T21:33:24.006Z,8.70
2018-01-20T21:35:52.412Z,7.77
2018-01-20T21:38:20.710Z,9.40
2018-01-20T21:40:49.137Z,8.90
2018-01-20T21:43:18.465Z,9.20
2018-01-20T21:45:50.493Z,8.37
2018-01-20T21:48:20.714Z,7.80
2018-01-20T21:50:52.190Z,9.80
2018-01-20T21:53:22.687Z,9.23
2018-01-20T21:55:51.069Z,9.17
2018-01-20T21:58:19.478Z,8.60
2018-01-20T22:00:47.864Z,8.80
2018-01-20T22:03:18.056Z,8.70
2018-01-20T22:05:46.439Z,9.80
2018-01-20T22:08:14.853Z,8.80
2018-01-20T22:10:43.210Z,9.70
2018-01-20T22:13:11.629Z,9.10
2018-01-20T22:15:40.875Z,9.40
2018-01-20T22:18:11.152Z,8.30
2018-01-20T22:20:40.427Z,9.67
2018-01-20T22:23:08.794Z,9.00
2018-01-20T22:25:37.202Z,8.97
2018-01-20T22:28:05.603Z,9.93
2018-01-20T22:30:34.880Z,9.73
2018-01-20T22:33:03.271Z,9.90
2018-01-20T22:35:31.927Z,8.90
2018-01-20T22:38:00.306Z,9.27
2018-01-20T22:40:28.718Z,9.17
2018-01-20T22:42:59.213Z,9.13
2018-01-20T22:45:31.304Z,9.73
2018-01-20T22:47:59.674Z,9.67
2018-01-20T22:50:28.040Z,8.00
2018-01-20T22:53:00.130Z,7.63
2018-01-20T22:55:30.353Z,8.10
2018-01-20T22:57:58.730Z,9.30
2018-01-20T23:00:43.929Z,7.23
2018-01-20T23:03:12.384Z,8.70
2018-01-20T23:05:41.669Z,8.77
2018-01-20T23:08:15.293Z,8.60
2018-01-20T23:10:43.563Z,8.63
2018-01-20T23:13:12.141Z,8.57
2018-01-20T23:15:40.404Z,7.10
2018-01-20T23:18:08.688Z,8.03
2018-01-20T23:20:36.977Z,8.83
2018-01-20T23:23:05.284Z,7.50
2018-01-20T23:25:33.843Z,13.30
2018-01-20T23:28:02.134Z,7.73
2018-01-20T23:30:34.084Z,7.67
2018-01-20T23:33:02.434Z,7.40
2018-01-20T23:35:33.903Z,7.23
2018-01-20T23:38:02.316Z,6.83
2018-01-20T23:40:30.666Z,6.37
2018-01-20T23:42:59.065Z,6.00
2018-01-20T23:45:33.250Z,5.40
2018-01-20T23:48:01.631Z,6.27
2018-01-20T23:50:30.025Z,4.80
2018-01-20T23:52:58.392Z,5.50
2018-01-20T23:55:27.687Z,4.87
2018-01-20T23:57:56.092Z,4.80
